sensor_id;sensor_type;location;lat;lon;timestamp;P1;durP1;ratioP1;P2;durP2;ratioP2
74335;SDS011;62755;-33.398;-70.572;2023-02-28T00:01:15;17.48;;;8.88;;
74335;SDS011;62755;-33.398;-70.572;2023-02-28T00:04:05;14.45;;;4.07;;
74335;SDS011;62755;-33.398;-70.572;2023-02-28T00:06:55;14.35;;;6.63;;
74335;SDS011;62755;-33.398;-70.572;2023-02-28T00:09:44;17.38;;;4.72;;
74335;SDS011;62755;-33.398;-70.572;2023-02-28T00:12:33;11.90;;;4.50;;
74335;SDS011;62755;-33.398;-70.572;2023-02-28T00:15:23;14.50;;;3.90;;
74335;SDS011;62755;-33.398;-70.572;2023-02-28T00:18:14;10.52;;;3.67;;
74335;SDS011;62755;-33.398;-70.572;2023-02-28T00:21:04;16.35;;;3.92;;
74335;SDS011;62755;-33.398;-70.572;2023-02-28T00:23:54;10.30;;;3.10;;
74335;SDS011;62755;-33.398;-70.572;2023-02-28T00:26:43;15.65;;;3.40;;
74335;SDS011;62755;-33.398;-70.572;2023-02-28T00:29:32;15.95;;;2.83;;
74335;SDS011;62755;-33.398;-70.572;2023-02-28T00:32:22;14.40;;;3.13;;
74335;SDS011;62755;-33.398;-70.572;2023-02-28T00:35:13;12.20;;;3.25;;
74335;SDS011;62755;-33.398;-70.572;2023-02-28T00:38:02;16.58;;;2.90;;
74335;SDS011;62755;-33.398;-70.572;2023-02-28T00:40:53;17.67;;;3.30;;
74335;SDS011;62755;-33.398;-70.572;2023-02-28T00:43:42;12.35;;;3.38;;
74335;SDS011;62755;-33.398;-70.572;2023-02-28T00:46:31;41.78;;;6.72;;
74335;SDS011;62755;-33.398;-70.572;2023-02-28T00:49:21;13.60;;;3.58;;
74335;SDS011;62755;-33.398;-70.572;2023-02-28T00:52:12;16.40;;;4.43;;
74335;SDS011;62755;-33.398;-70.572;2023-02-28T00:55:03;22.70;;;7.18;;
74335;SDS011;62755;-33.398;-70.572;2023-02-28T00:57:52;13.52;;;3.85;;
74335;SDS011;62755;-33.398;-70.572;2023-02-28T01:00:42;22.00;;;3.55;;
74335;SDS011;62755;-33.398;-70.572;2023-02-28T01:03:34;17.42;;;3.92;;
74335;SDS011;62755;-33.398;-70.572;2023-02-28T01:06:24;14.40;;;3.60;;
74335;SDS011;62755;-33.398;-70.572;2023-02-28T01:09:15;15.20;;;3.72;;
74335;SDS011;62755;-33.398;-70.572;2023-02-28T01:12:04;13.15;;;3.50;;
74335;SDS011;62755;-33.398;-70.572;2023-02-28T01:14:54;23.83;;;5.45;;
74335;SDS011;62755;-33.398;-70.572;2023-02-28T01:17:43;16.40;;;3.70;;
74335;SDS011;62755;-33.398;-70.572;2023-02-28T01:20:33;14.15;;;3.38;;
74335;SDS011;62755;-33.398;-70.572;2023-02-28T01:23:25;17.88;;;4.30;;
74335;SDS011;62755;-33.398;-70.572;2023-02-28T01:26:16;15.25;;;3.97;;
74335;SDS011;62755;-33.398;-70.572;2023-02-28T01:29:08;22.45;;;4.07;;
74335;SDS011;62755;-33.398;-70.572;2023-02-28T01:31:57;14.23;;;3.30;;
74335;SDS011;62755;-33.398;-70.572;2023-02-28T01:34:46;13.10;;;3.38;;
74335;SDS011;62755;-33.398;-70.572;2023-02-28T01:37:36;18.80;;;3.53;;
74335;SDS011;62755;-33.398;-70.572;2023-02-28T01:40:25;11.88;;;3.00;;
74335;SDS011;62755;-33.398;-70.572;2023-02-28T01:43:20;16.40;;;2.95;;
74335;SDS011;62755;-33.398;-70.572;2023-02-28T01:46:10;17.33;;;3.35;;
74335;SDS011;62755;-33.398;-70.572;2023-02-28T01:49:02;13.65;;;3.38;;
74335;SDS011;62755;-33.398;-70.572;2023-02-28T01:51:56;15.93;;;3.70;;
74335;SDS011;62755;-33.398;-70.572;2023-02-28T01:54:46;29.98;;;8.43;;
74335;SDS011;62755;-33.398;-70.572;2023-02-28T01:57:39;17.05;;;6.50;;
74335;SDS011;62755;-33.398;-70.572;2023-02-28T02:00:35;16.92;;;4.53;;
74335;SDS011;62755;-33.398;-70.572;2023-02-28T02:03:28;15.32;;;4.95;;
74335;SDS011;62755;-33.398;-70.572;2023-02-28T02:06:19;17.45;;;3.95;;
74335;SDS011;62755;-33.398;-70.572;2023-02-28T02:09:08;15.23;;;3.55;;
74335;SDS011;62755;-33.398;-70.572;2023-02-28T02:11:58;17.45;;;4.75;;
74335;SDS011;62755;-33.398;-70.572;2023-02-28T02:14:59;20.02;;;5.53;;
74335;SDS011;62755;-33.398;-70.572;2023-02-28T02:17:56;18.05;;;6.03;;
74335;SDS011;62755;-33.398;-70.572;2023-02-28T02:21:00;22.27;;;5.47;;
74335;SDS011;62755;-33.398;-70.572;2023-02-28T02:24:25;13.35;;;3.83;;
74335;SDS011;62755;-33.398;-70.572;2023-02-28T02:27:39;17.52;;;3.88;;
74335;SDS011;62755;-33.398;-70.572;2023-02-28T02:30:58;15.82;;;3.60;;
74335;SDS011;62755;-33.398;-70.572;2023-02-28T02:34:28;12.93;;;3.10;;
74335;SDS011;62755;-33.398;-70.572;2023-02-28T02:37:40;15.35;;;3.30;;
74335;SDS011;62755;-33.398;-70.572;2023-02-28T02:40:38;22.00;;;6.57;;
74335;SDS011;62755;-33.398;-70.572;2023-02-28T02:43:35;13.35;;;3.47;;
74335;SDS011;62755;-33.398;-70.572;2023-02-28T02:46:29;14.15;;;2.83;;
74335;SDS011;62755;-33.398;-70.572;2023-02-28T02:49:22;16.02;;;3.50;;
74335;SDS011;62755;-33.398;-70.572;2023-02-28T02:52:18;13.80;;;3.30;;
74335;SDS011;62755;-33.398;-70.572;2023-02-28T02:55:11;12.57;;;2.55;;
74335;SDS011;62755;-33.398;-70.572;2023-02-28T02:58:01;16.83;;;2.95;;
74335;SDS011;62755;-33.398;-70.572;2023-02-28T03:00:55;17.10;;;2.78;;
74335;SDS011;62755;-33.398;-70.572;2023-02-28T03:03:46;13.18;;;2.47;;
74335;SDS011;62755;-33.398;-70.572;2023-02-28T03:06:36;11.07;;;2.38;;
74335;SDS011;62755;-33.398;-70.572;2023-02-28T03:09:27;11.60;;;2.58;;
74335;SDS011;62755;-33.398;-70.572;2023-02-28T03:12:16;20.45;;;2.95;;
74335;SDS011;62755;-33.398;-70.572;2023-02-28T03:15:08;13.82;;;2.10;;
74335;SDS011;62755;-33.398;-70.572;2023-02-28T03:18:04;11.70;;;2.47;;
74335;SDS011;62755;-33.398;-70.572;2023-02-28T03:20:59;9.98;;;2.25;;
74335;SDS011;62755;-33.398;-70.572;2023-02-28T03:23:56;8.15;;;2.50;;
74335;SDS011;62755;-33.398;-70.572;2023-02-28T03:26:54;13.30;;;1.95;;
74335;SDS011;62755;-33.398;-70.572;2023-02-28T03:29:49;13.00;;;2.20;;
74335;SDS011;62755;-33.398;-70.572;2023-02-28T03:35:39;10.90;;;2.53;;
74335;SDS011;62755;-33.398;-70.572;2023-02-28T03:38:33;8.13;;;2.10;;
74335;SDS011;62755;-33.398;-70.572;2023-02-28T03:41:27;12.07;;;2.17;;
74335;SDS011;62755;-33.398;-70.572;2023-02-28T03:44:24;18.10;;;2.83;;
74335;SDS011;62755;-33.398;-70.572;2023-02-28T03:47:16;17.75;;;2.75;;
74335;SDS011;62755;-33.398;-70.572;2023-02-28T03:50:10;6.88;;;1.77;;
74335;SDS011;62755;-33.398;-70.572;2023-02-28T03:53:08;14.90;;;4.18;;
74335;SDS011;62755;-33.398;-70.572;2023-02-28T03:56:00;21.25;;;6.70;;
74335;SDS011;62755;-33.398;-70.572;2023-02-28T03:58:54;12.35;;;3.15;;
74335;SDS011;62755;-33.398;-70.572;2023-02-28T04:01:50;14.68;;;3.05;;
74335;SDS011;62755;-33.398;-70.572;2023-02-28T04:04:40;15.32;;;3.35;;
74335;SDS011;62755;-33.398;-70.572;2023-02-28T04:07:34;15.00;;;2.83;;
74335;SDS011;62755;-33.398;-70.572;2023-02-28T04:10:23;14.60;;;3.15;;
74335;SDS011;62755;-33.398;-70.572;2023-02-28T04:13:12;15.40;;;3.53;;
74335;SDS011;62755;-33.398;-70.572;2023-02-28T04:16:02;14.55;;;3.88;;
74335;SDS011;62755;-33.398;-70.572;2023-02-28T04:19:00;17.10;;;4.53;;
74335;SDS011;62755;-33.398;-70.572;2023-02-28T04:21:51;16.58;;;3.42;;
74335;SDS011;62755;-33.398;-70.572;2023-02-28T04:24:41;13.15;;;3.22;;
74335;SDS011;62755;-33.398;-70.572;2023-02-28T04:27:30;16.52;;;3.42;;
74335;SDS011;62755;-33.398;-70.572;2023-02-28T04:30:20;13.32;;;2.50;;
74335;SDS011;62755;-33.398;-70.572;2023-02-28T04:33:09;14.80;;;2.67;;
74335;SDS011;62755;-33.398;-70.572;2023-02-28T04:36:02;27.02;;;4.50;;
74335;SDS011;62755;-33.398;-70.572;2023-02-28T04:38:53;40.47;;;5.82;;
74335;SDS011;62755;-33.398;-70.572;2023-02-28T04:41:42;42.78;;;6.80;;
74335;SDS011;62755;-33.398;-70.572;2023-02-28T04:44:32;41.92;;;6.30;;
74335;SDS011;62755;-33.398;-70.572;2023-02-28T04:47:21;17.80;;;4.32;;
74335;SDS011;62755;-33.398;-70.572;2023-02-28T04:50:10;24.92;;;3.55;;
74335;SDS011;62755;-33.398;-70.572;2023-02-28T04:53:02;16.27;;;3.00;;
74335;SDS011;62755;-33.398;-70.572;2023-02-28T04:55:51;16.20;;;2.90;;
74335;SDS011;62755;-33.398;-70.572;2023-02-28T04:58:40;13.68;;;3.40;;
74335;SDS011;62755;-33.398;-70.572;2023-02-28T05:01:30;24.75;;;7.53;;
74335;SDS011;62755;-33.398;-70.572;2023-02-28T05:04:20;39.72;;;17.77;;
74335;SDS011;62755;-33.398;-70.572;2023-02-28T05:07:10;24.55;;;11.02;;
74335;SDS011;62755;-33.398;-70.572;2023-02-28T05:10:01;17.13;;;7.18;;
74335;SDS011;62755;-33.398;-70.572;2023-02-28T05:12:50;23.80;;;6.18;;
74335;SDS011;62755;-33.398;-70.572;2023-02-28T05:15:39;22.38;;;5.57;;
74335;SDS011;62755;-33.398;-70.572;2023-02-28T05:18:29;20.92;;;5.10;;
74335;SDS011;62755;-33.398;-70.572;2023-02-28T05:21:28;20.30;;;5.45;;
74335;SDS011;62755;-33.398;-70.572;2023-02-28T05:24:18;18.63;;;6.85;;
74335;SDS011;62755;-33.398;-70.572;2023-02-28T05:27:11;20.17;;;6.22;;
74335;SDS011;62755;-33.398;-70.572;2023-02-28T05:30:00;23.42;;;9.23;;
74335;SDS011;62755;-33.398;-70.572;2023-02-28T05:32:50;18.55;;;7.15;;
74335;SDS011;62755;-33.398;-70.572;2023-02-28T05:35:39;22.73;;;4.97;;
74335;SDS011;62755;-33.398;-70.572;2023-02-28T05:38:30;18.17;;;4.18;;
74335;SDS011;62755;-33.398;-70.572;2023-02-28T05:41:19;15.63;;;2.80;;
74335;SDS011;62755;-33.398;-70.572;2023-02-28T05:44:10;18.70;;;3.15;;
74335;SDS011;62755;-33.398;-70.572;2023-02-28T05:47:00;16.92;;;3.35;;
74335;SDS011;62755;-33.398;-70.572;2023-02-28T05:49:49;13.48;;;3.55;;
74335;SDS011;62755;-33.398;-70.572;2023-02-28T05:52:38;12.63;;;2.67;;
74335;SDS011;62755;-33.398;-70.572;2023-02-28T05:55:28;7.80;;;2.67;;
74335;SDS011;62755;-33.398;-70.572;2023-02-28T05:58:17;15.00;;;2.38;;
74335;SDS011;62755;-33.398;-70.572;2023-02-28T06:01:21;21.50;;;3.53;;
74335;SDS011;62755;-33.398;-70.572;2023-02-28T06:04:12;20.95;;;4.13;;
74335;SDS011;62755;-33.398;-70.572;2023-02-28T06:07:03;23.90;;;2.95;;
74335;SDS011;62755;-33.398;-70.572;2023-02-28T06:09:53;9.30;;;2.50;;
74335;SDS011;62755;-33.398;-70.572;2023-02-28T06:12:42;13.02;;;2.65;;
74335;SDS011;62755;-33.398;-70.572;2023-02-28T06:15:34;12.80;;;2.47;;
74335;SDS011;62755;-33.398;-70.572;2023-02-28T06:18:25;12.27;;;2.15;;
74335;SDS011;62755;-33.398;-70.572;2023-02-28T06:21:14;11.80;;;2.25;;
74335;SDS011;62755;-33.398;-70.572;2023-02-28T06:24:04;14.32;;;2.58;;
74335;SDS011;62755;-33.398;-70.572;2023-02-28T06:26:54;16.48;;;2.50;;
74335;SDS011;62755;-33.398;-70.572;2023-02-28T06:29:44;8.68;;;2.20;;
74335;SDS011;62755;-33.398;-70.572;2023-02-28T06:32:33;10.43;;;2.22;;
74335;SDS011;62755;-33.398;-70.572;2023-02-28T06:35:25;11.35;;;2.05;;
74335;SDS011;62755;-33.398;-70.572;2023-02-28T06:38:14;11.20;;;2.40;;
74335;SDS011;62755;-33.398;-70.572;2023-02-28T06:41:04;11.35;;;2.88;;
74335;SDS011;62755;-33.398;-70.572;2023-02-28T06:43:53;13.82;;;1.80;;
74335;SDS011;62755;-33.398;-70.572;2023-02-28T06:46:43;11.85;;;1.90;;
74335;SDS011;62755;-33.398;-70.572;2023-02-28T06:49:34;9.38;;;1.65;;
74335;SDS011;62755;-33.398;-70.572;2023-02-28T06:52:26;7.60;;;1.80;;
74335;SDS011;62755;-33.398;-70.572;2023-02-28T06:55:16;10.43;;;1.63;;
74335;SDS011;62755;-33.398;-70.572;2023-02-28T06:58:05;14.30;;;1.77;;
74335;SDS011;62755;-33.398;-70.572;2023-02-28T07:01:00;9.07;;;2.22;;
74335;SDS011;62755;-33.398;-70.572;2023-02-28T07:04:02;13.40;;;2.20;;
74335;SDS011;62755;-33.398;-70.572;2023-02-28T07:06:54;9.68;;;2.55;;
74335;SDS011;62755;-33.398;-70.572;2023-02-28T07:09:46;11.75;;;2.17;;
74335;SDS011;62755;-33.398;-70.572;2023-02-28T07:12:35;5.95;;;2.05;;
74335;SDS011;62755;-33.398;-70.572;2023-02-28T07:15:25;11.02;;;1.92;;
74335;SDS011;62755;-33.398;-70.572;2023-02-28T07:18:14;14.90;;;1.73;;
74335;SDS011;62755;-33.398;-70.572;2023-02-28T07:21:04;6.63;;;1.60;;
74335;SDS011;62755;-33.398;-70.572;2023-02-28T07:23:55;9.75;;;2.03;;
74335;SDS011;62755;-33.398;-70.572;2023-02-28T07:26:46;12.20;;;2.08;;
74335;SDS011;62755;-33.398;-70.572;2023-02-28T07:29:36;7.30;;;1.90;;
74335;SDS011;62755;-33.398;-70.572;2023-02-28T07:32:26;6.88;;;1.48;;
74335;SDS011;62755;-33.398;-70.572;2023-02-28T07:35:15;9.98;;;1.90;;
74335;SDS011;62755;-33.398;-70.572;2023-02-28T07:38:05;11.93;;;2.13;;
74335;SDS011;62755;-33.398;-70.572;2023-02-28T07:40:55;23.77;;;2.60;;
74335;SDS011;62755;-33.398;-70.572;2023-02-28T07:43:46;11.23;;;1.80;;
74335;SDS011;62755;-33.398;-70.572;2023-02-28T07:46:35;10.90;;;1.80;;
74335;SDS011;62755;-33.398;-70.572;2023-02-28T07:49:25;8.00;;;2.20;;
74335;SDS011;62755;-33.398;-70.572;2023-02-28T07:52:14;15.63;;;2.60;;
74335;SDS011;62755;-33.398;-70.572;2023-02-28T07:55:04;13.88;;;2.33;;
74335;SDS011;62755;-33.398;-70.572;2023-02-28T07:57:55;9.60;;;2.30;;
74335;SDS011;62755;-33.398;-70.572;2023-02-28T08:00:47;14.98;;;2.30;;
74335;SDS011;62755;-33.398;-70.572;2023-02-28T08:03:37;9.73;;;2.35;;
74335;SDS011;62755;-33.398;-70.572;2023-02-28T08:06:27;9.45;;;2.40;;
74335;SDS011;62755;-33.398;-70.572;2023-02-28T08:09:17;15.55;;;3.08;;
74335;SDS011;62755;-33.398;-70.572;2023-02-28T08:12:06;9.68;;;2.80;;
74335;SDS011;62755;-33.398;-70.572;2023-02-28T08:14:57;7.10;;;2.72;;
74335;SDS011;62755;-33.398;-70.572;2023-02-28T08:17:48;10.50;;;2.63;;
74335;SDS011;62755;-33.398;-70.572;2023-02-28T08:20:37;10.80;;;2.72;;
74335;SDS011;62755;-33.398;-70.572;2023-02-28T08:23:27;6.72;;;2.58;;
74335;SDS011;62755;-33.398;-70.572;2023-02-28T08:26:16;6.00;;;2.25;;
74335;SDS011;62755;-33.398;-70.572;2023-02-28T08:29:06;7.15;;;2.13;;
74335;SDS011;62755;-33.398;-70.572;2023-02-28T08:31:56;10.40;;;2.33;;
74335;SDS011;62755;-33.398;-70.572;2023-02-28T08:34:47;11.93;;;2.58;;
74335;SDS011;62755;-33.398;-70.572;2023-02-28T08:37:37;9.80;;;2.35;;
74335;SDS011;62755;-33.398;-70.572;2023-02-28T08:40:26;12.82;;;2.55;;
74335;SDS011;62755;-33.398;-70.572;2023-02-28T08:43:15;12.73;;;2.90;;
74335;SDS011;62755;-33.398;-70.572;2023-02-28T08:46:05;14.82;;;3.22;;
74335;SDS011;62755;-33.398;-70.572;2023-02-28T08:48:56;16.13;;;2.47;;
74335;SDS011;62755;-33.398;-70.572;2023-02-28T08:51:49;14.50;;;2.55;;
74335;SDS011;62755;-33.398;-70.572;2023-02-28T08:54:38;9.50;;;2.25;;
74335;SDS011;62755;-33.398;-70.572;2023-02-28T08:57:27;9.05;;;1.80;;
74335;SDS011;62755;-33.398;-70.572;2023-02-28T09:00:17;13.45;;;2.60;;
74335;SDS011;62755;-33.398;-70.572;2023-02-28T09:03:06;8.45;;;2.40;;
74335;SDS011;62755;-33.398;-70.572;2023-02-28T09:05:56;9.27;;;1.77;;
74335;SDS011;62755;-33.398;-70.572;2023-02-28T09:08:49;10.27;;;2.20;;
74335;SDS011;62755;-33.398;-70.572;2023-02-28T09:11:38;11.02;;;2.20;;
74335;SDS011;62755;-33.398;-70.572;2023-02-28T09:14:27;10.25;;;2.00;;
74335;SDS011;62755;-33.398;-70.572;2023-02-28T09:17:17;10.63;;;2.42;;
74335;SDS011;62755;-33.398;-70.572;2023-02-28T09:20:07;13.25;;;2.50;;
74335;SDS011;62755;-33.398;-70.572;2023-02-28T09:22:57;17.10;;;2.83;;
74335;SDS011;62755;-33.398;-70.572;2023-02-28T09:25:49;16.67;;;2.40;;
74335;SDS011;62755;-33.398;-70.572;2023-02-28T09:28:39;16.83;;;4.03;;
74335;SDS011;62755;-33.398;-70.572;2023-02-28T09:31:29;11.45;;;2.65;;
74335;SDS011;62755;-33.398;-70.572;2023-02-28T09:34:18;14.80;;;2.97;;
74335;SDS011;62755;-33.398;-70.572;2023-02-28T09:37:07;25.00;;;3.70;;
74335;SDS011;62755;-33.398;-70.572;2023-02-28T09:39:57;11.38;;;2.20;;
74335;SDS011;62755;-33.398;-70.572;2023-02-28T09:42:48;17.48;;;3.22;;
74335;SDS011;62755;-33.398;-70.572;2023-02-28T09:45:42;19.10;;;4.03;;
74335;SDS011;62755;-33.398;-70.572;2023-02-28T09:48:37;18.60;;;2.72;;
74335;SDS011;62755;-33.398;-70.572;2023-02-28T09:51:39;10.43;;;2.15;;
74335;SDS011;62755;-33.398;-70.572;2023-02-28T09:54:37;10.95;;;2.65;;
74335;SDS011;62755;-33.398;-70.572;2023-02-28T09:57:29;13.35;;;2.50;;
74335;SDS011;62755;-33.398;-70.572;2023-02-28T10:00:27;12.25;;;2.55;;
74335;SDS011;62755;-33.398;-70.572;2023-02-28T10:03:28;25.48;;;3.13;;
74335;SDS011;62755;-33.398;-70.572;2023-02-28T10:06:21;17.27;;;3.38;;
74335;SDS011;62755;-33.398;-70.572;2023-02-28T10:09:17;13.27;;;2.30;;
74335;SDS011;62755;-33.398;-70.572;2023-02-28T10:12:10;15.25;;;3.45;;
74335;SDS011;62755;-33.398;-70.572;2023-02-28T10:15:03;19.85;;;2.53;;
74335;SDS011;62755;-33.398;-70.572;2023-02-28T10:17:56;10.98;;;2.00;;
74335;SDS011;62755;-33.398;-70.572;2023-02-28T10:20:48;11.43;;;2.20;;
74335;SDS011;62755;-33.398;-70.572;2023-02-28T10:23:39;9.05;;;1.85;;
74335;SDS011;62755;-33.398;-70.572;2023-02-28T10:26:31;11.55;;;2.75;;
74335;SDS011;62755;-33.398;-70.572;2023-02-28T10:29:21;11.35;;;2.47;;
74335;SDS011;62755;-33.398;-70.572;2023-02-28T10:32:11;12.60;;;2.30;;
74335;SDS011;62755;-33.398;-70.572;2023-02-28T10:35:10;13.60;;;2.38;;
74335;SDS011;62755;-33.398;-70.572;2023-02-28T10:38:08;6.22;;;2.10;;
74335;SDS011;62755;-33.398;-70.572;2023-02-28T10:41:05;11.82;;;2.20;;
74335;SDS011;62755;-33.398;-70.572;2023-02-28T10:47:03;22.45;;;4.10;;
74335;SDS011;62755;-33.398;-70.572;2023-02-28T10:49:52;19.45;;;4.13;;
74335;SDS011;62755;-33.398;-70.572;2023-02-28T10:52:43;17.35;;;3.28;;
74335;SDS011;62755;-33.398;-70.572;2023-02-28T10:55:33;20.38;;;3.30;;
74335;SDS011;62755;-33.398;-70.572;2023-02-28T10:58:23;13.30;;;2.60;;
74335;SDS011;62755;-33.398;-70.572;2023-02-28T11:01:13;21.95;;;3.53;;
74335;SDS011;62755;-33.398;-70.572;2023-02-28T11:04:15;34.88;;;3.97;;
74335;SDS011;62755;-33.398;-70.572;2023-02-28T11:07:18;24.48;;;4.15;;
74335;SDS011;62755;-33.398;-70.572;2023-02-28T11:10:16;28.45;;;4.38;;
74335;SDS011;62755;-33.398;-70.572;2023-02-28T11:13:13;18.13;;;4.53;;
74335;SDS011;62755;-33.398;-70.572;2023-02-28T11:16:09;15.45;;;2.58;;
74335;SDS011;62755;-33.398;-70.572;2023-02-28T11:19:00;19.20;;;2.88;;
74335;SDS011;62755;-33.398;-70.572;2023-02-28T11:21:51;20.52;;;4.13;;
74335;SDS011;62755;-33.398;-70.572;2023-02-28T11:24:44;19.35;;;3.58;;
74335;SDS011;62755;-33.398;-70.572;2023-02-28T11:27:47;17.65;;;3.05;;
74335;SDS011;62755;-33.398;-70.572;2023-02-28T11:30:38;21.83;;;3.00;;
74335;SDS011;62755;-33.398;-70.572;2023-02-28T11:33:29;7.03;;;2.53;;
74335;SDS011;62755;-33.398;-70.572;2023-02-28T11:36:21;20.08;;;2.50;;
74335;SDS011;62755;-33.398;-70.572;2023-02-28T11:39:12;21.67;;;3.60;;
74335;SDS011;62755;-33.398;-70.572;2023-02-28T11:42:05;13.95;;;3.22;;
74335;SDS011;62755;-33.398;-70.572;2023-02-28T11:45:21;27.65;;;4.90;;
74335;SDS011;62755;-33.398;-70.572;2023-02-28T11:48:21;22.67;;;5.03;;
74335;SDS011;62755;-33.398;-70.572;2023-02-28T11:51:16;19.42;;;4.28;;
74335;SDS011;62755;-33.398;-70.572;2023-02-28T12:01:05;18.67;;;3.00;;
74335;SDS011;62755;-33.398;-70.572;2023-02-28T12:04:17;14.38;;;2.85;;
74335;SDS011;62755;-33.398;-70.572;2023-02-28T12:07:15;16.27;;;3.65;;
74335;SDS011;62755;-33.398;-70.572;2023-02-28T12:10:16;18.35;;;3.45;;
74335;SDS011;62755;-33.398;-70.572;2023-02-28T12:13:15;15.13;;;2.85;;
74335;SDS011;62755;-33.398;-70.572;2023-02-28T12:19:27;26.38;;;3.63;;
74335;SDS011;62755;-33.398;-70.572;2023-02-28T12:22:24;14.20;;;3.60;;
74335;SDS011;62755;-33.398;-70.572;2023-02-28T12:28:37;22.70;;;3.45;;
74335;SDS011;62755;-33.398;-70.572;2023-02-28T12:31:33;15.52;;;3.53;;
74335;SDS011;62755;-33.398;-70.572;2023-02-28T12:34:31;25.75;;;4.10;;
74335;SDS011;62755;-33.398;-70.572;2023-02-28T12:37:25;16.38;;;3.28;;
74335;SDS011;62755;-33.398;-70.572;2023-02-28T12:40:20;22.15;;;3.88;;
74335;SDS011;62755;-33.398;-70.572;2023-02-28T12:43:10;23.75;;;3.58;;
74335;SDS011;62755;-33.398;-70.572;2023-02-28T12:46:05;13.80;;;3.28;;
74335;SDS011;62755;-33.398;-70.572;2023-02-28T12:49:00;18.55;;;3.30;;
74335;SDS011;62755;-33.398;-70.572;2023-02-28T12:51:54;22.42;;;3.15;;
74335;SDS011;62755;-33.398;-70.572;2023-02-28T12:54:44;32.42;;;4.28;;
74335;SDS011;62755;-33.398;-70.572;2023-02-28T12:57:41;21.77;;;3.45;;
74335;SDS011;62755;-33.398;-70.572;2023-02-28T13:00:37;16.40;;;3.15;;
74335;SDS011;62755;-33.398;-70.572;2023-02-28T13:03:39;19.27;;;3.63;;
74335;SDS011;62755;-33.398;-70.572;2023-02-28T13:06:44;18.23;;;4.00;;
74335;SDS011;62755;-33.398;-70.572;2023-02-28T13:09:54;16.17;;;2.90;;
74335;SDS011;62755;-33.398;-70.572;2023-02-28T13:12:48;24.88;;;3.22;;
74335;SDS011;62755;-33.398;-70.572;2023-02-28T13:15:39;15.95;;;3.65;;
74335;SDS011;62755;-33.398;-70.572;2023-02-28T13:18:31;23.02;;;3.80;;
74335;SDS011;62755;-33.398;-70.572;2023-02-28T13:21:26;20.55;;;3.72;;
74335;SDS011;62755;-33.398;-70.572;2023-02-28T13:27:35;22.70;;;3.80;;
74335;SDS011;62755;-33.398;-70.572;2023-02-28T13:33:34;13.27;;;3.85;;
74335;SDS011;62755;-33.398;-70.572;2023-02-28T13:36:26;27.45;;;4.63;;
74335;SDS011;62755;-33.398;-70.572;2023-02-28T13:42:36;13.82;;;3.30;;
74335;SDS011;62755;-33.398;-70.572;2023-02-28T13:45:36;27.58;;;3.67;;
74335;SDS011;62755;-33.398;-70.572;2023-02-28T13:48:26;18.85;;;3.53;;
74335;SDS011;62755;-33.398;-70.572;2023-02-28T13:51:37;22.50;;;2.85;;
74335;SDS011;62755;-33.398;-70.572;2023-02-28T13:54:33;22.30;;;4.20;;
74335;SDS011;62755;-33.398;-70.572;2023-02-28T13:57:41;21.35;;;4.03;;
74335;SDS011;62755;-33.398;-70.572;2023-02-28T14:00:45;19.60;;;4.57;;
74335;SDS011;62755;-33.398;-70.572;2023-02-28T14:04:03;29.90;;;5.05;;
74335;SDS011;62755;-33.398;-70.572;2023-02-28T14:07:16;19.42;;;3.55;;
74335;SDS011;62755;-33.398;-70.572;2023-02-28T14:10:15;24.30;;;5.10;;
74335;SDS011;62755;-33.398;-70.572;2023-02-28T14:13:14;25.00;;;4.85;;
74335;SDS011;62755;-33.398;-70.572;2023-02-28T14:16:35;18.40;;;4.28;;
74335;SDS011;62755;-33.398;-70.572;2023-02-28T14:19:28;22.20;;;4.03;;
74335;SDS011;62755;-33.398;-70.572;2023-02-28T14:22:25;25.30;;;4.65;;
74335;SDS011;62755;-33.398;-70.572;2023-02-28T14:25:40;18.15;;;4.18;;
74335;SDS011;62755;-33.398;-70.572;2023-02-28T14:28:45;21.67;;;4.75;;
74335;SDS011;62755;-33.398;-70.572;2023-02-28T14:31:53;21.73;;;4.22;;
74335;SDS011;62755;-33.398;-70.572;2023-02-28T14:34:48;21.93;;;4.13;;
74335;SDS011;62755;-33.398;-70.572;2023-02-28T14:37:43;15.32;;;3.80;;
74335;SDS011;62755;-33.398;-70.572;2023-02-28T14:40:34;15.63;;;4.40;;
74335;SDS011;62755;-33.398;-70.572;2023-02-28T14:43:26;18.33;;;4.07;;
74335;SDS011;62755;-33.398;-70.572;2023-02-28T14:46:18;21.55;;;3.95;;
74335;SDS011;62755;-33.398;-70.572;2023-02-28T14:49:11;18.00;;;3.72;;
74335;SDS011;62755;-33.398;-70.572;2023-02-28T14:52:06;22.23;;;4.25;;
74335;SDS011;62755;-33.398;-70.572;2023-02-28T14:55:03;18.60;;;3.30;;
74335;SDS011;62755;-33.398;-70.572;2023-02-28T14:58:01;19.40;;;3.67;;
74335;SDS011;62755;-33.398;-70.572;2023-02-28T15:01:10;21.30;;;4.07;;
74335;SDS011;62755;-33.398;-70.572;2023-02-28T15:04:02;17.80;;;3.83;;
74335;SDS011;62755;-33.398;-70.572;2023-02-28T15:07:09;15.55;;;3.40;;
74335;SDS011;62755;-33.398;-70.572;2023-02-28T15:10:09;20.20;;;4.18;;
74335;SDS011;62755;-33.398;-70.572;2023-02-28T15:13:11;20.60;;;4.43;;
74335;SDS011;62755;-33.398;-70.572;2023-02-28T15:16:02;15.60;;;3.83;;
74335;SDS011;62755;-33.398;-70.572;2023-02-28T15:18:54;17.35;;;4.45;;
74335;SDS011;62755;-33.398;-70.572;2023-02-28T15:21:48;18.08;;;4.32;;
74335;SDS011;62755;-33.398;-70.572;2023-02-28T15:24:42;27.25;;;4.22;;
74335;SDS011;62755;-33.398;-70.572;2023-02-28T15:27:35;15.43;;;4.10;;
74335;SDS011;62755;-33.398;-70.572;2023-02-28T15:30:31;32.72;;;4.57;;
74335;SDS011;62755;-33.398;-70.572;2023-02-28T15:33:21;23.90;;;4.97;;
74335;SDS011;62755;-33.398;-70.572;2023-02-28T15:36:13;27.08;;;4.65;;
74335;SDS011;62755;-33.398;-70.572;2023-02-28T15:39:19;38.10;;;5.32;;
74335;SDS011;62755;-33.398;-70.572;2023-02-28T15:42:10;24.83;;;4.38;;
74335;SDS011;62755;-33.398;-70.572;2023-02-28T15:45:00;24.50;;;4.50;;
74335;SDS011;62755;-33.398;-70.572;2023-02-28T15:47:51;18.63;;;4.88;;
74335;SDS011;62755;-33.398;-70.572;2023-02-28T15:50:40;17.23;;;4.38;;
74335;SDS011;62755;-33.398;-70.572;2023-02-28T15:53:30;31.27;;;5.25;;
74335;SDS011;62755;-33.398;-70.572;2023-02-28T15:56:24;25.05;;;4.93;;
74335;SDS011;62755;-33.398;-70.572;2023-02-28T15:59:15;20.58;;;4.43;;
74335;SDS011;62755;-33.398;-70.572;2023-02-28T16:02:15;19.98;;;4.57;;
74335;SDS011;62755;-33.398;-70.572;2023-02-28T16:05:20;29.05;;;5.60;;
74335;SDS011;62755;-33.398;-70.572;2023-02-28T16:08:14;20.42;;;4.93;;
74335;SDS011;62755;-33.398;-70.572;2023-02-28T16:11:04;17.15;;;4.22;;
74335;SDS011;62755;-33.398;-70.572;2023-02-28T16:13:55;28.75;;;4.88;;
74335;SDS011;62755;-33.398;-70.572;2023-02-28T16:16:45;20.33;;;4.55;;
74335;SDS011;62755;-33.398;-70.572;2023-02-28T16:19:36;13.88;;;3.53;;
74335;SDS011;62755;-33.398;-70.572;2023-02-28T16:22:25;21.38;;;5.07;;
74335;SDS011;62755;-33.398;-70.572;2023-02-28T16:25:15;17.08;;;4.07;;
74335;SDS011;62755;-33.398;-70.572;2023-02-28T16:28:07;21.40;;;4.00;;
74335;SDS011;62755;-33.398;-70.572;2023-02-28T16:31:05;18.00;;;4.05;;
74335;SDS011;62755;-33.398;-70.572;2023-02-28T16:33:57;16.75;;;3.22;;
74335;SDS011;62755;-33.398;-70.572;2023-02-28T16:36:47;18.90;;;4.38;;
74335;SDS011;62755;-33.398;-70.572;2023-02-28T16:39:37;21.20;;;4.90;;
74335;SDS011;62755;-33.398;-70.572;2023-02-28T16:42:27;19.98;;;4.35;;
74335;SDS011;62755;-33.398;-70.572;2023-02-28T16:45:18;20.60;;;4.32;;
74335;SDS011;62755;-33.398;-70.572;2023-02-28T16:48:12;18.55;;;4.55;;
74335;SDS011;62755;-33.398;-70.572;2023-02-28T16:51:03;22.52;;;4.90;;
74335;SDS011;62755;-33.398;-70.572;2023-02-28T16:53:53;22.33;;;4.88;;
74335;SDS011;62755;-33.398;-70.572;2023-02-28T16:56:42;18.00;;;4.20;;